createdAt,value
2022-11-11T00:00:51.124Z,10.02
2022-11-11T00:01:51.137Z,9.99
2022-11-11T00:02:51.185Z,9.97
2022-11-11T00:03:51.199Z,10.00
2022-11-11T00:04:51.180Z,10.00
2022-11-11T00:05:51.186Z,10.00
2022-11-11T00:06:51.289Z,9.97
2022-11-11T00:07:51.248Z,9.95
2022-11-11T00:08:51.248Z,9.97
2022-11-11T00:09:51.269Z,9.99
2022-11-11T00:10:51.327Z,9.97
2022-11-11T00:11:51.420Z,10.00
2022-11-11T00:12:51.459Z,10.03
2022-11-11T00:13:51.466Z,9.99
2022-11-11T00:14:51.480Z,9.99
2022-11-11T00:15:51.520Z,10.00
2022-11-11T00:16:51.541Z,9.95
2022-11-11T00:17:51.549Z,9.95
2022-11-11T00:18:51.557Z,9.92
2022-11-11T00:19:51.606Z,9.90
2022-11-11T00:20:51.611Z,9.88
2022-11-11T00:21:51.620Z,9.87
2022-11-11T00:22:51.651Z,9.82
2022-11-11T00:23:51.736Z,9.85
2022-11-11T00:24:51.731Z,9.84
2022-11-11T00:25:51.846Z,9.85
2022-11-11T00:26:51.832Z,9.82
2022-11-11T00:27:51.879Z,9.85
2022-11-11T00:28:51.913Z,9.82
2022-11-11T00:29:51.947Z,9.81
2022-11-11T00:30:51.911Z,9.81
2022-11-11T00:31:51.959Z,9.85
2022-11-11T00:32:51.924Z,9.81
2022-11-11T00:33:51.953Z,9.84
2022-11-11T00:34:51.963Z,9.81
2022-11-11T00:35:52.019Z,9.81
2022-11-11T00:36:52.033Z,9.81
2022-11-11T00:37:52.099Z,9.80
2022-11-11T00:38:52.099Z,9.80
2022-11-11T00:39:52.125Z,9.87
2022-11-11T00:40:52.194Z,9.90
2022-11-11T00:41:52.220Z,9.88
2022-11-11T00:42:52.214Z,9.87
2022-11-11T00:43:52.267Z,9.85
2022-11-11T00:44:52.291Z,9.87
2022-11-11T00:45:52.287Z,9.87
2022-11-11T00:46:52.293Z,9.90
2022-11-11T00:47:52.333Z,9.87
2022-11-11T00:48:52.283Z,9.84
2022-11-11T00:49:52.288Z,9.80
2022-11-11T00:50:52.342Z,9.80
2022-11-11T00:51:52.378Z,9.76
2022-11-11T00:52:52.441Z,9.74
2022-11-11T00:53:52.383Z,9.76
2022-11-11T00:54:52.381Z,9.80
2022-11-11T00:55:52.390Z,9.82
2022-11-11T00:56:52.414Z,9.85
2022-11-11T00:57:52.476Z,9.87
2022-11-11T00:58:52.481Z,9.82
2022-11-11T00:59:52.480Z,9.84
2022-11-11T01:00:52.605Z,9.80
2022-11-11T01:01:52.656Z,9.80
2022-11-11T01:02:52.706Z,9.76
2022-11-11T01:03:52.708Z,9.72
2022-11-11T01:04:52.692Z,9.67
2022-11-11T01:05:52.616Z,9.59
2022-11-11T01:06:52.733Z,9.58
2022-11-11T01:07:52.643Z,9.59
2022-11-11T01:08:52.573Z,9.56
2022-11-11T01:09:52.663Z,9.51
2022-11-11T01:10:52.577Z,9.49
2022-11-11T01:11:52.571Z,9.47
2022-11-11T01:12:52.611Z,9.47
2022-11-11T01:13:52.652Z,9.47
2022-11-11T01:14:52.634Z,9.48
2022-11-11T01:15:52.684Z,9.49
2022-11-11T01:16:52.680Z,9.47
2022-11-11T01:17:52.711Z,9.47
2022-11-11T01:18:52.832Z,9.44
2022-11-11T01:19:52.758Z,9.47
2022-11-11T01:20:52.776Z,9.48
2022-11-11T01:21:52.814Z,9.49
2022-11-11T01:22:52.922Z,9.56
2022-11-11T01:23:52.932Z,9.63
2022-11-11T01:24:52.866Z,9.64
2022-11-11T01:25:52.860Z,9.70
2022-11-11T01:26:52.857Z,9.70
2022-11-11T01:27:52.910Z,9.73
2022-11-11T01:28:52.974Z,9.70
2022-11-11T01:29:53.036Z,9.72
2022-11-11T01:30:53.062Z,9.72
2022-11-11T01:31:52.961Z,9.73
2022-11-11T01:32:53.092Z,9.74
2022-11-11T01:33:53.097Z,9.80
2022-11-11T01:34:53.045Z,9.81
2022-11-11T01:35:53.153Z,9.80
2022-11-11T01:36:53.146Z,9.82
2022-11-11T01:37:53.201Z,9.82
2022-11-11T01:38:53.255Z,9.82
2022-11-11T01:39:53.250Z,9.85
2022-11-11T01:40:53.156Z,9.90
2022-11-11T01:41:55.095Z,9.87
2022-11-11T01:42:53.311Z,9.88
2022-11-11T01:43:53.260Z,9.88
2022-11-11T01:44:53.284Z,9.85
2022-11-11T01:45:53.283Z,9.84
2022-11-11T01:46:53.283Z,9.85
2022-11-11T01:48:21.520Z,9.85
2022-11-11T01:48:53.345Z,9.87
2022-11-11T01:49:53.393Z,9.88
2022-11-11T01:50:53.413Z,9.90
2022-11-11T01:51:53.413Z,9.87
2022-11-11T01:52:53.433Z,9.85
2022-11-11T01:53:53.533Z,9.85
2022-11-11T01:54:53.469Z,9.87
2022-11-11T01:55:53.483Z,9.87
2022-11-11T01:56:53.558Z,9.88
2022-11-11T01:57:53.623Z,9.90
2022-11-11T01:58:53.692Z,9.87
2022-11-11T01:59:53.602Z,9.85
2022-11-11T02:00:53.732Z,9.84
2022-11-11T02:01:53.696Z,9.88
2022-11-11T02:02:53.688Z,9.88
2022-11-11T02:03:53.639Z,9.92
2022-11-11T02:04:53.648Z,9.92
2022-11-11T02:05:53.696Z,9.91
2022-11-11T02:06:53.951Z,9.92
2022-11-11T02:07:53.827Z,9.92
2022-11-11T02:08:53.827Z,9.88
2022-11-11T02:09:53.838Z,9.90
2022-11-11T02:10:53.925Z,9.90
2022-11-11T02:11:53.959Z,9.87
2022-11-11T02:12:53.854Z,9.94
2022-11-11T02:13:53.944Z,9.97
2022-11-11T02:14:54.024Z,9.90
2022-11-11T02:15:54.010Z,9.92
2022-11-11T02:16:54.068Z,9.91
2022-11-11T02:17:54.156Z,9.91
2022-11-11T02:18:54.066Z,9.90
2022-11-11T02:19:54.151Z,9.87
2022-11-11T02:20:54.021Z,9.87
2022-11-11T02:21:54.115Z,9.90
2022-11-11T02:22:54.049Z,9.91
2022-11-11T02:23:54.235Z,9.91
2022-11-11T02:24:54.259Z,9.94
2022-11-11T02:25:54.100Z,9.88
2022-11-11T02:26:58.214Z,9.88
2022-11-11T02:27:54.184Z,9.88
2022-11-11T02:28:54.354Z,9.84
2022-11-11T02:29:54.233Z,9.81
2022-11-11T02:30:54.374Z,9.77
2022-11-11T02:31:54.393Z,9.74
2022-11-11T02:32:54.265Z,9.74
2022-11-11T02:35:20.310Z,9.69
2022-11-11T02:36:20.409Z,9.66
2022-11-11T02:37:20.367Z,9.67
2022-11-11T02:38:20.412Z,9.66
2022-11-11T02:39:27.177Z,9.67
2022-11-11T02:40:20.470Z,9.63
2022-11-11T02:41:20.485Z,9.67
2022-11-11T02:42:20.471Z,9.64
2022-11-11T02:43:20.525Z,9.63
2022-11-11T02:44:20.496Z,9.62
2022-11-11T02:45:20.519Z,9.63
2022-11-11T02:46:20.682Z,9.64
2022-11-11T02:47:20.618Z,9.70
2022-11-11T02:48:20.614Z,9.76
2022-11-11T02:49:20.703Z,9.84
2022-11-11T02:50:20.572Z,9.81
2022-11-11T02:51:20.615Z,9.81
2022-11-11T02:52:20.711Z,9.77
2022-11-11T02:53:21.045Z,9.80
2022-11-11T02:54:20.624Z,9.81
2022-11-11T02:55:20.674Z,9.81
2022-11-11T02:56:20.679Z,9.77
2022-11-11T02:57:20.784Z,9.80
2022-11-11T02:58:20.888Z,9.80
2022-11-11T02:59:20.716Z,9.77
2022-11-11T03:00:20.907Z,9.74
2022-11-11T03:01:20.990Z,9.70
2022-11-11T03:02:20.985Z,9.72
2022-11-11T03:03:20.977Z,9.74
2022-11-11T03:04:20.975Z,9.80
2022-11-11T03:05:20.881Z,9.82
2022-11-11T03:06:20.936Z,9.80
2022-11-11T03:07:21.009Z,9.77
2022-11-11T03:08:21.036Z,9.72
2022-11-11T03:09:21.023Z,9.72
2022-11-11T03:10:20.996Z,9.63
2022-11-11T03:11:21.269Z,9.64
2022-11-11T03:12:21.242Z,9.63
2022-11-11T03:13:21.449Z,9.59
2022-11-11T03:14:21.129Z,9.63
2022-11-11T03:15:21.270Z,9.59
2022-11-11T03:16:21.169Z,9.54
2022-11-11T03:17:21.240Z,9.49
2022-11-11T03:18:21.247Z,9.47
2022-11-11T03:19:21.231Z,9.47
2022-11-11T03:20:21.167Z,9.45
2022-11-11T03:22:51.455Z,9.42
2022-11-11T03:23:21.516Z,9.40
2022-11-11T03:24:21.286Z,9.40
2022-11-11T03:25:21.283Z,9.40
2022-11-11T03:26:21.271Z,9.40
2022-11-11T03:27:21.260Z,9.42
2022-11-11T03:28:21.256Z,9.44
2022-11-11T03:29:21.264Z,9.45
2022-11-11T03:30:21.296Z,9.45
2022-11-11T03:31:21.362Z,9.47
2022-11-11T03:32:21.352Z,9.55
2022-11-11T03:33:21.668Z,9.59
2022-11-11T03:34:21.404Z,9.64
2022-11-11T03:35:21.404Z,9.72
2022-11-11T03:36:21.403Z,9.77
2022-11-11T03:37:21.453Z,9.77
2022-11-11T03:38:21.445Z,9.80
2022-11-11T03:39:21.493Z,9.74
2022-11-11T03:40:21.504Z,9.76
2022-11-11T03:41:21.500Z,9.77
2022-11-11T03:42:21.504Z,9.72
2022-11-11T03:43:21.835Z,9.64
2022-11-11T03:44:21.505Z,9.66
2022-11-11T03:45:21.497Z,9.70
2022-11-11T03:46:21.505Z,9.69
2022-11-11T03:47:21.498Z,9.70
2022-11-11T03:48:21.498Z,9.69
2022-11-11T03:49:21.488Z,9.69
2022-11-11T03:50:21.487Z,9.69
2022-11-11T03:51:21.526Z,9.73
2022-11-11T03:52:21.517Z,9.73
2022-11-11T03:53:21.903Z,9.80
2022-11-11T03:54:21.519Z,9.80
2022-11-11T03:55:21.517Z,9.76
2022-11-11T03:56:21.519Z,9.73
2022-11-11T03:57:21.518Z,9.72
2022-11-11T03:58:21.508Z,9.76
2022-11-11T03:59:21.489Z,9.76
2022-11-11T04:00:21.503Z,9.77
2022-11-11T04:01:21.602Z,9.80
2022-11-11T04:02:21.568Z,9.81
2022-11-11T04:03:21.928Z,9.81
2022-11-11T04:04:21.640Z,9.82
2022-11-11T04:05:21.632Z,9.77
2022-11-11T04:06:21.652Z,9.70
2022-11-11T04:07:21.651Z,9.69
2022-11-11T04:08:21.641Z,9.72
2022-11-11T04:09:21.642Z,9.72
2022-11-11T04:10:21.631Z,9.67
2022-11-11T04:11:21.711Z,9.67
2022-11-11T04:12:21.692Z,9.70
2022-11-11T04:13:22.174Z,9.66
2022-11-11T04:14:21.733Z,9.67
2022-11-11T04:15:21.754Z,9.69
2022-11-11T04:16:21.733Z,9.77
2022-11-11T04:17:21.766Z,9.80
2022-11-11T04:18:21.815Z,9.87
2022-11-11T04:19:21.834Z,9.88
2022-11-11T04:20:21.864Z,9.94
2022-11-11T04:21:21.884Z,10.00
2022-11-11T04:22:21.917Z,10.00
2022-11-11T04:23:22.194Z,10.03
2022-11-11T04:24:21.994Z,10.00
2022-11-11T04:25:22.023Z,9.99
2022-11-11T04:26:22.016Z,10.00
2022-11-11T04:27:22.035Z,9.97
2022-11-11T04:28:22.056Z,10.00
2022-11-11T04:29:22.077Z,10.02
2022-11-11T04:30:22.096Z,9.99
2022-11-11T04:31:22.106Z,9.94
2022-11-11T04:32:22.137Z,9.94
2022-11-11T04:33:22.587Z,9.99
2022-11-11T04:34:22.217Z,10.05
2022-11-11T04:35:22.248Z,10.09
2022-11-11T04:36:22.300Z,10.05
2022-11-11T04:37:22.338Z,10.07
2022-11-11T04:38:22.408Z,10.03
2022-11-11T04:39:22.409Z,10.02
2022-11-11T04:40:22.469Z,10.06
2022-11-11T04:41:23.842Z,10.10
2022-11-11T04:42:22.539Z,10.17
2022-11-11T04:43:22.950Z,10.18
2022-11-11T04:44:22.830Z,10.18
2022-11-11T04:45:22.629Z,10.13
2022-11-11T04:46:22.680Z,10.12
2022-11-11T04:47:22.700Z,10.13
2022-11-11T04:48:22.710Z,10.23
2022-11-11T04:49:22.781Z,10.30
2022-11-11T04:50:22.751Z,10.31
2022-11-11T04:51:22.811Z,10.33
2022-11-11T04:52:22.852Z,10.30
2022-11-11T04:53:23.166Z,10.27
2022-11-11T04:54:22.946Z,10.18
2022-11-11T04:55:22.981Z,10.15
2022-11-11T04:56:23.043Z,10.13
2022-11-11T04:57:23.072Z,10.12
2022-11-11T04:58:23.123Z,10.15
2022-11-11T04:59:23.163Z,10.15
2022-11-11T05:00:26.531Z,10.13
2022-11-11T05:01:23.281Z,10.09
2022-11-11T05:02:23.254Z,10.10
2022-11-11T05:03:23.578Z,10.12
2022-11-11T05:04:23.325Z,10.12
2022-11-11T05:05:23.364Z,10.09
2022-11-11T05:06:23.415Z,10.09
2022-11-11T05:07:23.503Z,10.09
2022-11-11T05:08:23.519Z,10.12
2022-11-11T05:09:23.561Z,10.09
2022-11-11T05:10:23.597Z,10.02
2022-11-11T05:11:23.666Z,10.02
2022-11-11T05:12:23.686Z,10.00
2022-11-11T05:13:24.141Z,9.99
2022-11-11T05:14:23.758Z,10.00
2022-11-11T05:15:23.785Z,10.00
2022-11-11T05:16:23.848Z,10.02
2022-11-11T05:17:23.887Z,10.02
2022-11-11T05:18:23.907Z,10.03
2022-11-11T05:19:23.988Z,9.97
2022-11-11T05:20:24.018Z,9.97
2022-11-11T05:21:24.038Z,10.03
2022-11-11T05:22:24.100Z,10.05
2022-11-11T05:23:24.495Z,10.03
2022-11-11T05:24:24.149Z,10.02
2022-11-11T05:25:24.189Z,10.06
2022-11-11T05:26:28.165Z,10.06
2022-11-11T05:27:24.273Z,10.00
2022-11-11T05:28:24.270Z,9.99
2022-11-11T05:29:24.280Z,10.03
2022-11-11T05:30:24.322Z,10.05
2022-11-11T05:31:24.424Z,10.03
2022-11-11T05:32:24.371Z,10.02
2022-11-11T05:33:24.621Z,10.02
2022-11-11T05:34:24.432Z,9.91
2022-11-11T05:35:24.433Z,9.90
2022-11-11T05:36:24.471Z,9.91
2022-11-11T05:37:24.542Z,9.95
2022-11-11T05:38:24.552Z,10.02
2022-11-11T05:39:24.633Z,10.02
2022-11-11T05:40:24.595Z,10.02
2022-11-11T05:41:24.633Z,10.09
2022-11-11T05:42:24.681Z,10.10
2022-11-11T05:43:24.931Z,10.07
2022-11-11T05:44:24.783Z,10.10
2022-11-11T05:45:24.773Z,10.06
2022-11-11T05:46:24.844Z,10.09
2022-11-11T05:47:24.813Z,10.13
2022-11-11T05:48:24.854Z,10.12
2022-11-11T05:49:24.896Z,10.12
2022-11-11T05:50:24.945Z,10.15
2022-11-11T05:51:25.004Z,10.12
2022-11-11T05:52:25.063Z,10.05
2022-11-11T05:53:25.489Z,9.99
2022-11-11T05:54:25.145Z,9.99
2022-11-11T05:55:25.157Z,10.02
2022-11-11T05:56:25.167Z,10.05
2022-11-11T05:57:25.271Z,10.09
2022-11-11T05:58:25.228Z,10.12
2022-11-11T05:59:25.264Z,10.09
2022-11-11T06:00:25.298Z,10.10
2022-11-11T06:01:25.395Z,10.06
2022-11-11T06:02:25.398Z,10.07
2022-11-11T06:03:25.726Z,10.12
2022-11-11T06:04:25.448Z,10.15
2022-11-11T06:05:25.498Z,10.13
2022-11-11T06:06:25.558Z,10.13
2022-11-11T06:07:25.608Z,10.07
2022-11-11T06:08:25.649Z,10.09
2022-11-11T06:09:25.698Z,10.10
2022-11-11T06:10:25.758Z,10.02
2022-11-11T06:11:31.371Z,10.03
2022-11-11T06:12:25.824Z,10.03
2022-11-11T06:13:26.236Z,10.02
2022-11-11T06:14:25.910Z,9.99
2022-11-11T06:15:25.922Z,10.00
2022-11-11T06:16:25.950Z,10.03
2022-11-11T06:17:25.970Z,9.99
2022-11-11T06:18:30.943Z,10.00
2022-11-11T06:19:26.020Z,9.97
2022-11-11T06:20:26.081Z,9.97
2022-11-11T06:21:26.104Z,10.05
2022-11-11T06:22:26.083Z,10.10
2022-11-11T06:23:26.523Z,10.10
2022-11-11T06:24:27.009Z,10.09
2022-11-11T06:25:26.172Z,10.07
2022-11-11T06:26:26.156Z,10.12
2022-11-11T06:27:26.184Z,10.07
2022-11-11T06:28:26.225Z,10.12
2022-11-11T06:29:26.262Z,10.06
2022-11-11T06:30:48.188Z,10.05
2022-11-11T06:31:26.314Z,10.03
2022-11-11T06:32:26.373Z,10.06
2022-11-11T06:33:26.883Z,10.07
2022-11-11T06:34:26.495Z,10.06
2022-11-11T06:35:26.555Z,10.03
2022-11-11T06:36:26.607Z,10.05
2022-11-11T06:37:26.658Z,10.05
2022-11-11T06:38:26.665Z,10.02
2022-11-11T06:39:26.649Z,10.02
2022-11-11T06:40:26.697Z,10.00
2022-11-11T06:41:26.708Z,9.99
2022-11-11T06:42:26.737Z,9.99
2022-11-11T06:43:27.124Z,9.99
2022-11-11T06:44:26.855Z,9.92
2022-11-11T06:45:26.848Z,9.90
2022-11-11T06:46:26.892Z,9.94
2022-11-11T06:47:26.928Z,9.95
2022-11-11T06:48:26.963Z,9.94
2022-11-11T06:49:27.028Z,9.92
2022-11-11T06:50:27.090Z,9.97
2022-11-11T06:51:27.130Z,9.92
2022-11-11T06:52:27.192Z,9.95
2022-11-11T06:53:27.497Z,9.97
2022-11-11T06:54:27.230Z,9.95
2022-11-11T06:55:27.297Z,9.95
2022-11-11T06:56:27.278Z,9.91
2022-11-11T06:57:27.280Z,9.94
2022-11-11T06:58:27.731Z,9.90
2022-11-11T06:59:27.320Z,9.91
2022-11-11T07:00:27.321Z,9.91
2022-11-11T07:01:27.393Z,9.87
2022-11-11T07:02:27.382Z,9.88
2022-11-11T07:03:27.376Z,9.90
2022-11-11T07:04:27.385Z,9.92
2022-11-11T07:05:27.393Z,9.92
2022-11-11T07:06:27.393Z,9.92
2022-11-11T07:07:27.462Z,9.90
2022-11-11T07:08:27.835Z,9.87
2022-11-11T07:09:27.460Z,9.84
2022-11-11T07:10:27.493Z,9.81
2022-11-11T07:11:27.503Z,9.88
2022-11-11T07:12:27.544Z,9.88
2022-11-11T07:13:27.544Z,9.91
2022-11-11T07:14:27.586Z,9.94
2022-11-11T07:15:27.595Z,9.94
2022-11-11T07:16:27.615Z,9.97
2022-11-11T07:17:27.671Z,9.97
2022-11-11T07:18:28.132Z,10.00
2022-11-11T07:19:27.813Z,10.06
2022-11-11T07:20:27.754Z,10.07
2022-11-11T07:21:27.725Z,10.05
2022-11-11T07:22:27.775Z,10.07
2022-11-11T07:23:27.787Z,10.12
2022-11-11T07:24:27.777Z,10.21
2022-11-11T07:25:27.827Z,10.28
2022-11-11T07:26:27.878Z,10.27
2022-11-11T07:27:27.939Z,10.30
2022-11-11T07:28:28.143Z,10.36
2022-11-11T07:29:27.968Z,10.38
2022-11-11T07:30:28.019Z,10.42
2022-11-11T07:31:28.019Z,10.49
2022-11-11T07:32:28.029Z,10.53
2022-11-11T07:33:28.080Z,10.51
2022-11-11T07:34:28.149Z,10.55
2022-11-11T07:35:28.177Z,10.57
2022-11-11T07:36:28.231Z,10.51
2022-11-11T07:37:28.262Z,10.57
2022-11-11T07:38:28.260Z,10.59
2022-11-11T07:39:28.271Z,10.65
2022-11-11T07:40:28.321Z,10.77
2022-11-11T07:41:28.391Z,10.83
2022-11-11T07:42:32.031Z,10.83
2022-11-11T07:43:28.440Z,10.86
2022-11-11T07:44:28.483Z,10.89
2022-11-11T07:45:28.474Z,10.90
2022-11-11T07:46:28.473Z,10.90
2022-11-11T07:47:28.560Z,10.90
2022-11-11T07:48:28.542Z,10.95
2022-11-11T07:49:28.593Z,10.89
2022-11-11T07:50:28.701Z,10.92
2022-11-11T07:51:28.674Z,10.95
2022-11-11T07:52:28.704Z,11.02
2022-11-11T07:53:28.726Z,10.98
2022-11-11T07:54:28.725Z,10.98
2022-11-11T07:55:28.764Z,10.98
2022-11-11T07:56:28.758Z,11.01
2022-11-11T07:57:28.806Z,11.07
2022-11-11T07:58:28.867Z,11.08
2022-11-11T07:59:28.927Z,11.13
2022-11-11T08:00:28.947Z,11.19
2022-11-11T08:01:28.938Z,11.25
2022-11-11T08:02:28.927Z,11.18
2022-11-11T08:03:28.974Z,11.18
2022-11-11T08:04:29.018Z,11.16
2022-11-11T08:05:29.059Z,11.19
2022-11-11T08:06:29.111Z,11.25
2022-11-11T08:07:29.200Z,11.31
2022-11-11T08:08:29.168Z,11.33
2022-11-11T08:09:29.187Z,11.33
2022-11-11T08:10:29.209Z,11.37
2022-11-11T08:11:29.229Z,11.40
2022-11-11T08:12:29.251Z,11.44
2022-11-11T08:13:29.281Z,11.44
2022-11-11T08:14:29.250Z,11.45
2022-11-11T08:15:29.352Z,11.49
2022-11-11T08:16:29.331Z,11.58
2022-11-11T08:17:29.362Z,11.63
2022-11-11T08:18:29.431Z,11.65
2022-11-11T08:19:29.464Z,11.59
2022-11-11T08:20:29.512Z,11.60
2022-11-11T08:21:29.512Z,11.71
2022-11-11T08:22:29.541Z,11.67
2022-11-11T08:25:02.248Z,11.59
2022-11-11T08:25:29.605Z,11.70
2022-11-11T08:26:30.084Z,11.71
2022-11-11T08:27:29.673Z,11.76
2022-11-11T08:28:29.713Z,11.73
2022-11-11T08:29:29.714Z,11.81
2022-11-11T08:30:29.735Z,11.83
2022-11-11T08:31:29.795Z,11.88
2022-11-11T08:32:29.844Z,11.95
2022-11-11T08:33:34.726Z,11.95
2022-11-11T08:34:29.906Z,11.95
2022-11-11T08:35:29.913Z,11.95
2022-11-11T08:36:29.916Z,11.97
2022-11-11T08:37:29.937Z,12.07
2022-11-11T08:38:29.967Z,12.15
2022-11-11T08:39:29.978Z,12.14
2022-11-11T08:40:30.067Z,12.08
2022-11-11T08:41:30.108Z,12.07
2022-11-11T08:42:30.108Z,12.07
2022-11-11T08:43:35.580Z,12.15
2022-11-11T08:44:30.160Z,12.20
2022-11-11T08:45:30.177Z,12.15
2022-11-11T08:46:30.282Z,12.12
2022-11-11T08:47:30.300Z,12.25
2022-11-11T08:48:30.319Z,12.29
2022-11-11T08:49:30.381Z,12.29
2022-11-11T08:50:30.392Z,12.26
2022-11-11T08:51:38.052Z,12.28
2022-11-11T08:52:30.512Z,12.28
2022-11-11T08:53:30.554Z,12.30
2022-11-11T08:54:30.554Z,12.23
2022-11-11T08:55:30.636Z,12.26
2022-11-11T08:56:30.632Z,12.30
2022-11-11T08:57:30.692Z,12.29
2022-11-11T08:58:30.734Z,12.45
2022-11-11T08:59:30.763Z,12.45
2022-11-11T09:00:30.822Z,12.51
2022-11-11T09:01:30.948Z,12.54
2022-11-11T09:02:30.886Z,12.44
2022-11-11T09:03:30.945Z,12.51
2022-11-11T09:04:44.717Z,12.55
2022-11-11T09:05:30.966Z,12.48
2022-11-11T09:06:30.997Z,12.53
2022-11-11T09:07:30.999Z,12.57
2022-11-11T09:08:30.996Z,12.55
2022-11-11T09:09:31.055Z,12.65
2022-11-11T09:10:31.111Z,12.66
2022-11-11T09:11:31.118Z,12.68
2022-11-11T09:12:31.107Z,12.65
2022-11-11T09:13:31.107Z,12.65
2022-11-11T09:14:31.109Z,12.69
2022-11-11T09:15:31.147Z,12.66
2022-11-11T09:16:31.121Z,12.70
2022-11-11T09:17:31.169Z,12.73
2022-11-11T09:18:31.168Z,12.86
2022-11-11T09:19:31.190Z,12.90
2022-11-11T09:20:31.206Z,13.02
2022-11-11T09:21:31.210Z,13.12
2022-11-11T09:22:31.210Z,13.01
2022-11-11T09:23:31.229Z,13.01
2022-11-11T09:24:31.239Z,12.99
2022-11-11T09:25:31.242Z,12.93
2022-11-11T09:26:31.230Z,12.80
2022-11-11T09:27:31.230Z,12.76
2022-11-11T09:28:31.253Z,12.75
2022-11-11T09:29:31.262Z,12.63
2022-11-11T09:30:31.266Z,12.72
2022-11-11T09:31:44.614Z,12.84
2022-11-11T09:32:31.324Z,12.94
2022-11-11T09:33:31.344Z,13.05
2022-11-11T09:34:31.417Z,13.17
2022-11-11T09:35:31.449Z,13.17
2022-11-11T09:36:31.464Z,13.28
2022-11-11T09:37:31.505Z,13.37
2022-11-11T09:38:31.574Z,13.28
2022-11-11T09:39:31.586Z,13.23
2022-11-11T09:40:31.606Z,13.24
2022-11-11T09:41:31.609Z,13.23
2022-11-11T09:42:31.598Z,13.27
2022-11-11T09:43:31.618Z,13.21
2022-11-11T09:44:31.667Z,13.31
2022-11-11T09:45:31.749Z,13.46
2022-11-11T09:46:31.733Z,13.45
2022-11-11T09:47:31.789Z,13.47
2022-11-11T09:48:31.848Z,13.45
2022-11-11T09:49:31.899Z,13.54
2022-11-11T09:50:31.927Z,13.45
2022-11-11T09:51:31.928Z,13.40
2022-11-11T09:52:31.929Z,13.50
2022-11-11T09:53:31.939Z,13.67
2022-11-11T09:54:31.970Z,13.75
2022-11-11T09:55:31.954Z,13.65
2022-11-11T09:56:32.258Z,13.85
2022-11-11T09:57:31.984Z,14.04
2022-11-11T09:58:32.021Z,14.20
2022-11-11T09:59:32.032Z,14.23
2022-11-11T10:00:32.073Z,14.13
2022-11-11T10:01:32.162Z,14.23
2022-11-11T10:02:32.065Z,14.26
2022-11-11T10:03:32.113Z,14.20
2022-11-11T10:04:32.176Z,14.19
2022-11-11T10:05:32.118Z,14.25
2022-11-11T10:06:32.166Z,14.28
2022-11-11T10:07:32.985Z,14.31
2022-11-11T10:08:32.195Z,14.40
2022-11-11T10:09:32.234Z,14.26
2022-11-11T10:10:32.226Z,14.19
2022-11-11T10:11:32.257Z,14.16
2022-11-11T10:12:32.254Z,14.08
2022-11-11T10:13:32.307Z,14.16
2022-11-11T10:14:32.346Z,14.15
2022-11-11T10:15:32.346Z,14.28
2022-11-11T10:16:32.396Z,14.25
2022-11-11T10:17:32.435Z,14.20
2022-11-11T10:18:32.488Z,14.26
2022-11-11T10:19:32.480Z,14.23
2022-11-11T10:20:32.522Z,14.44
2022-11-11T10:21:45.223Z,14.41
2022-11-11T10:22:32.609Z,14.36
2022-11-11T10:23:32.660Z,14.56
2022-11-11T10:24:33.952Z,14.63
2022-11-11T10:25:32.690Z,14.68
2022-11-11T10:26:32.752Z,14.78
2022-11-11T10:27:32.760Z,15.04
2022-11-11T10:28:32.842Z,15.63
2022-11-11T10:29:32.811Z,16.22
2022-11-11T10:30:32.852Z,16.72
2022-11-11T10:31:32.892Z,17.23
2022-11-11T10:32:32.943Z,17.50
2022-11-11T10:33:32.954Z,17.78
2022-11-11T10:34:33.008Z,18.11
2022-11-11T10:35:33.060Z,18.85
2022-11-11T10:36:37.277Z,18.88
2022-11-11T10:37:33.054Z,18.83
2022-11-11T10:38:33.094Z,19.23
2022-11-11T10:39:33.115Z,19.17
2022-11-11T10:40:33.156Z,18.66
2022-11-11T10:41:33.185Z,18.58
2022-11-11T10:42:33.244Z,18.58
2022-11-11T10:43:33.286Z,18.36
2022-11-11T10:44:33.341Z,18.63
2022-11-11T10:45:33.389Z,18.81
2022-11-11T10:46:37.961Z,19.12
2022-11-11T10:47:33.379Z,18.92
2022-11-11T10:48:33.378Z,19.39
2022-11-11T10:49:33.520Z,19.81
2022-11-11T10:50:33.459Z,20.24
2022-11-11T10:51:33.509Z,19.99
2022-11-11T10:52:33.571Z,19.81
2022-11-11T10:53:33.561Z,19.60
2022-11-11T10:54:33.612Z,19.48
2022-11-11T10:55:33.591Z,19.63
2022-11-11T10:56:33.621Z,19.93
2022-11-11T10:57:33.631Z,20.49
2022-11-11T10:58:33.672Z,20.36
2022-11-11T10:59:33.712Z,19.34
2022-11-11T11:00:33.735Z,18.68
2022-11-11T11:01:33.777Z,18.45
2022-11-11T11:02:33.774Z,18.58
2022-11-11T11:03:33.774Z,18.97
2022-11-11T11:04:33.818Z,18.97
2022-11-11T11:05:33.825Z,18.83
2022-11-11T11:06:33.942Z,18.70
2022-11-11T11:07:33.936Z,18.09
2022-11-11T11:08:33.987Z,18.09
2022-11-11T11:09:33.995Z,18.31
2022-11-11T11:10:34.049Z,18.66
2022-11-11T11:11:38.894Z,18.63
2022-11-11T11:12:34.108Z,18.60
2022-11-11T11:13:34.169Z,18.21
2022-11-11T11:14:34.178Z,18.16
2022-11-11T11:15:34.179Z,18.46
2022-11-11T11:16:34.213Z,18.86
2022-11-11T11:17:34.292Z,18.88
2022-11-11T11:18:36.929Z,18.60
2022-11-11T11:19:34.251Z,18.28
2022-11-11T11:20:34.310Z,18.24
2022-11-11T11:21:34.391Z,18.09
2022-11-11T11:22:34.411Z,18.41
2022-11-11T11:23:34.452Z,18.53
2022-11-11T11:24:34.452Z,18.51
2022-11-11T11:25:34.493Z,18.42
2022-11-11T11:26:34.543Z,18.63
2022-11-11T11:27:34.566Z,18.85
2022-11-11T11:28:34.554Z,18.82
2022-11-11T11:29:34.610Z,18.78
2022-11-11T11:30:34.702Z,18.33
2022-11-11T11:31:34.734Z,18.49
2022-11-11T11:32:34.776Z,18.37
2022-11-11T11:33:34.796Z,18.41
2022-11-11T11:34:34.846Z,18.42
2022-11-11T11:35:34.926Z,18.33
2022-11-11T11:36:34.936Z,18.26
2022-11-11T11:37:34.937Z,18.05
2022-11-11T11:38:34.928Z,18.19
2022-11-11T11:39:35.646Z,18.23
2022-11-11T11:40:36.965Z,18.08
2022-11-11T11:41:34.979Z,18.02
2022-11-11T11:42:34.977Z,17.93
2022-11-11T11:43:34.975Z,18.06
2022-11-11T11:44:35.005Z,17.73
2022-11-11T11:45:35.020Z,18.19
2022-11-11T11:46:35.050Z,18.21
2022-11-11T11:47:35.100Z,18.21
2022-11-11T11:48:35.101Z,18.45
2022-11-11T11:49:35.092Z,18.41
2022-11-11T11:50:35.172Z,18.64
2022-11-11T11:51:35.247Z,18.52
2022-11-11T11:52:38.734Z,18.55
2022-11-11T11:53:35.280Z,18.36
2022-11-11T11:54:35.315Z,18.09
2022-11-11T11:55:35.374Z,18.23
2022-11-11T11:56:35.464Z,18.60
2022-11-11T11:57:35.478Z,18.42
2022-11-11T11:58:39.841Z,18.37
2022-11-11T11:59:35.511Z,18.15
2022-11-11T12:00:35.560Z,18.23
2022-11-11T12:01:35.616Z,18.34
2022-11-11T12:02:35.673Z,18.60
2022-11-11T12:03:35.711Z,18.66
2022-11-11T12:04:39.611Z,18.71
2022-11-11T12:05:35.749Z,18.63
2022-11-11T12:06:35.791Z,18.24
2022-11-11T12:07:35.770Z,18.33
2022-11-11T12:08:35.791Z,18.81
2022-11-11T12:09:35.860Z,19.27
2022-11-11T12:10:39.367Z,19.56
2022-11-11T12:11:35.920Z,19.38
2022-11-11T12:12:35.961Z,18.81
2022-11-11T12:13:35.993Z,18.63
2022-11-11T12:14:36.054Z,18.60
2022-11-11T12:15:36.104Z,18.76
2022-11-11T12:16:40.906Z,19.09
2022-11-11T12:17:36.203Z,19.41
2022-11-11T12:18:36.213Z,19.41
2022-11-11T12:19:36.223Z,19.27
2022-11-11T12:20:36.209Z,19.52
2022-11-11T12:21:36.279Z,19.74
2022-11-11T12:22:41.767Z,19.87
2022-11-11T12:23:36.265Z,19.64
2022-11-11T12:24:36.316Z,19.67
2022-11-11T12:25:36.310Z,19.75
2022-11-11T12:26:36.356Z,20.07
2022-11-11T12:27:36.388Z,19.97
2022-11-11T12:28:36.459Z,19.32
2022-11-11T12:29:36.436Z,19.09
2022-11-11T12:30:36.514Z,19.15
2022-11-11T12:31:36.538Z,19.27
2022-11-11T12:32:36.529Z,19.20
2022-11-11T12:33:36.529Z,19.38
2022-11-11T12:34:36.519Z,19.48
2022-11-11T12:35:36.590Z,19.55
2022-11-11T12:36:36.577Z,19.55
2022-11-11T12:37:36.589Z,19.39
2022-11-11T12:38:36.660Z,19.22
2022-11-11T12:39:36.651Z,19.07
2022-11-11T12:40:36.721Z,18.98
2022-11-11T12:41:36.711Z,19.00
2022-11-11T12:42:36.732Z,19.22
2022-11-11T12:43:36.803Z,18.88
2022-11-11T12:44:36.833Z,18.70
2022-11-11T12:45:36.850Z,18.88
2022-11-11T12:46:36.924Z,18.94
2022-11-11T12:47:36.979Z,19.12
2022-11-11T12:48:37.024Z,19.49
2022-11-11T12:49:37.072Z,19.62
2022-11-11T12:50:37.086Z,19.63
2022-11-11T12:51:37.159Z,19.74
2022-11-11T12:52:37.168Z,19.57
2022-11-11T12:53:37.217Z,19.75
2022-11-11T12:54:37.266Z,20.00
2022-11-11T12:55:37.274Z,19.70
2022-11-11T12:56:37.279Z,19.45
2022-11-11T12:57:37.258Z,19.34
2022-11-11T12:58:41.838Z,19.56
2022-11-11T12:59:37.378Z,19.66
2022-11-11T13:00:37.414Z,19.45
2022-11-11T13:01:37.439Z,19.48
2022-11-11T13:02:37.479Z,19.53
2022-11-11T13:03:37.450Z,19.57
2022-11-11T13:04:37.520Z,19.63
2022-11-11T13:05:37.969Z,19.41
2022-11-11T13:06:37.579Z,19.60